Accueil
METAR-TAF:

METAR-TAF

Aéroports :

Aéroport international de Cambridge

Cambridge, Angleterre

latitude: 52-12N, longitude: 000-11E, altitude: 15 m

Observation

Le bulletin a été fait il y a 14 heures et 17 minutes, à 16:50 UTC
Vent 7 kt de sud-est
Température 33°C
Humidité 34%
Pression 1013 hPa
Visibilité 10 km ou plus
pas de nuages en-dessous de 1500 mètres et pas de cumulonimbus.

METAR: EGSC 101650Z 13007KT CAVOK 33/15 Q1013

Heure: 08:07 (07:07 UTC)

Prévision

Le bulletin a été fait il y a 15 heures et 20 minutes, à 15:47 UTC
Prévision valable du 10 à 15 UTC au 10 à 17 UTC
Vent 8 kt de sud-est
Visibilité 10 km ou plus
pas de nuages en-dessous de 1500 mètres et pas de cumulonimbus.
Probabilité 30% :
Temporairement
du 10 à 15 UTC au 10 à 17 UTC
Visibilité: 7000 m
averses de pluie

TAF: EGSC 101547Z 1015/1017 14008KT CAVOK PROB30 TEMPO 1015/1017 7000 SHRA

Observations et prévisions météorologiques de plus de 4000 aéroports (messages METAR et TAF).

Les stations disponibles sont représentées par des disques jaunes et rouges sur la carte.

Passer la souris dessus pour voir le nom de la station.

Cliquer dessus pour voir les observations et prévisions météorologiques.

Pour changer de carte: cliquez sur les boutons verts avec une croix noire pour zoomer, sur le bouton vert avec un tiret pour effectuer un zoom arrière, ou sur les flèches vertes pour les cartes adjacentes.


METAR-TAF: